createdAt,value
2019-01-28T00:00:56.164Z,93.91
2019-01-28T00:03:25.193Z,93.79
2019-01-28T00:06:04.075Z,93.85
2019-01-28T00:08:29.892Z,94.15
2019-01-28T00:10:58.364Z,93.99
2019-01-28T00:13:26.820Z,94.02
2019-01-28T00:15:55.304Z,93.78
2019-01-28T00:18:23.738Z,94.19
2019-01-28T00:20:52.257Z,94.18
2019-01-28T00:23:20.645Z,94.00
2019-01-28T00:25:49.099Z,93.78
2019-01-28T00:28:17.538Z,93.43
2019-01-28T00:30:47.628Z,93.78
2019-01-28T00:33:16.088Z,94.19
2019-01-28T00:35:44.586Z,94.21
2019-01-28T00:38:13.200Z,94.41
2019-01-28T00:40:41.670Z,94.19
2019-01-28T00:43:10.162Z,94.75
2019-01-28T00:45:38.626Z,94.89
2019-01-28T00:48:07.088Z,95.50
2019-01-28T00:50:35.538Z,95.44
2019-01-28T00:53:04.278Z,95.69
2019-01-28T00:55:32.722Z,95.77
2019-01-28T00:58:01.184Z,95.66
2019-01-28T01:00:31.151Z,95.60
2019-01-28T01:02:59.603Z,95.27
2019-01-28T01:05:28.052Z,94.77
2019-01-28T01:07:56.526Z,94.47
2019-01-28T01:10:24.973Z,94.59
2019-01-28T01:12:53.428Z,94.87
2019-01-28T01:15:21.905Z,94.88
2019-01-28T01:17:50.318Z,94.68
2019-01-28T01:20:19.136Z,94.42
2019-01-28T01:22:47.597Z,94.73
2019-01-28T01:25:16.115Z,94.26
2019-01-28T01:27:44.589Z,93.78
2019-01-28T01:30:17.737Z,93.92
2019-01-28T01:32:46.209Z,93.76
2019-01-28T01:35:14.897Z,93.57
2019-01-28T01:37:43.346Z,93.81
2019-01-28T01:40:14.424Z,94.50
2019-01-28T01:42:43.060Z,94.34
2019-01-28T01:45:13.971Z,94.69
2019-01-28T01:47:42.511Z,94.78
2019-01-28T01:50:11.876Z,94.65
2019-01-28T01:52:40.336Z,95.01
2019-01-28T01:55:11.315Z,95.54
2019-01-28T01:57:39.775Z,96.10
2019-01-28T02:00:13.867Z,96.65
2019-01-28T02:02:42.294Z,96.56
2019-01-28T02:05:11.117Z,96.71
2019-01-28T02:07:39.553Z,96.81
2019-01-28T02:10:11.062Z,97.28
2019-01-28T02:12:39.553Z,97.73
2019-01-28T02:15:11.047Z,97.31
2019-01-28T02:17:39.493Z,97.51
2019-01-28T02:20:10.030Z,97.52
2019-01-28T02:22:38.503Z,97.61
2019-01-28T02:25:09.592Z,97.81
2019-01-28T02:27:38.035Z,98.09
2019-01-28T02:30:10.041Z,98.43
2019-01-28T02:32:38.488Z,98.65
2019-01-28T02:35:08.575Z,98.88
2019-01-28T02:37:37.015Z,98.23
2019-01-28T02:40:14.533Z,98.44
2019-01-28T02:42:42.949Z,98.64
2019-01-28T02:45:13.664Z,98.65
2019-01-28T02:47:42.285Z,98.65
2019-01-28T02:50:13.403Z,98.38
2019-01-28T02:52:41.862Z,98.24
2019-01-28T02:55:10.567Z,98.07
2019-01-28T02:57:39.015Z,98.09
2019-01-28T03:00:16.670Z,98.00
2019-01-28T03:02:45.580Z,97.40
2019-01-28T03:05:14.874Z,96.90
2019-01-28T03:07:43.377Z,97.01
2019-01-28T03:10:15.196Z,97.21
2019-01-28T03:12:43.642Z,97.54
2019-01-28T03:15:12.570Z,97.38
2019-01-28T03:17:41.014Z,98.02
2019-01-28T03:20:12.417Z,97.92
2019-01-28T03:22:40.859Z,97.70
2019-01-28T03:25:14.539Z,97.56
2019-01-28T03:27:43.054Z,97.40
2019-01-28T03:30:14.364Z,97.87
2019-01-28T03:32:42.804Z,97.84
2019-01-28T03:35:11.514Z,97.74
2019-01-28T03:37:39.996Z,96.97
2019-01-28T03:40:16.807Z,96.03
2019-01-28T03:42:45.389Z,96.41
2019-01-28T03:45:16.526Z,96.18
2019-01-28T03:47:45.249Z,96.51
2019-01-28T03:50:15.730Z,96.51
2019-01-28T03:52:44.737Z,96.66
2019-01-28T03:55:13.514Z,96.87
2019-01-28T03:57:42.129Z,96.97
2019-01-28T04:00:19.426Z,96.71
2019-01-28T04:02:47.980Z,96.72
2019-01-28T04:05:16.686Z,96.74
2019-01-28T04:07:45.150Z,96.71
2019-01-28T04:10:16.641Z,97.11
2019-01-28T04:12:45.102Z,96.66
2019-01-28T04:15:16.176Z,96.14
2019-01-28T04:17:44.658Z,96.62
2019-01-28T04:20:15.531Z,97.02
2019-01-28T04:22:43.991Z,96.88
2019-01-28T04:25:13.265Z,96.48
2019-01-28T04:27:41.800Z,96.69
2019-01-28T04:30:13.616Z,96.96
2019-01-28T04:32:42.091Z,97.11
2019-01-28T04:35:10.790Z,96.85
2019-01-28T04:37:39.341Z,96.57
2019-01-28T04:40:10.432Z,96.14
2019-01-28T04:42:38.896Z,95.54
2019-01-28T04:45:20.470Z,94.84
2019-01-28T04:47:49.142Z,94.87
2019-01-28T04:50:19.397Z,94.86
2019-01-28T04:52:48.031Z,94.32
2019-01-28T04:55:17.018Z,94.43
2019-01-28T04:57:45.660Z,94.43
2019-01-28T05:00:16.801Z,94.98
2019-01-28T05:02:45.285Z,95.28
2019-01-28T05:05:14.062Z,95.53
2019-01-28T05:07:42.762Z,95.17
2019-01-28T05:10:14.028Z,95.30
2019-01-28T05:12:42.461Z,95.86
2019-01-28T05:15:13.872Z,95.76
2019-01-28T05:17:42.401Z,95.56
2019-01-28T05:20:13.429Z,95.65
2019-01-28T05:22:41.882Z,96.22
2019-01-28T05:25:12.982Z,96.35
2019-01-28T05:27:41.490Z,96.71
2019-01-28T05:30:15.816Z,97.00
2019-01-28T05:32:44.545Z,97.22
2019-01-28T05:35:15.636Z,97.39
2019-01-28T05:37:44.101Z,97.69
2019-01-28T05:40:15.602Z,98.12
2019-01-28T05:42:44.052Z,98.35
2019-01-28T05:45:15.047Z,98.34
2019-01-28T05:47:43.545Z,98.19
2019-01-28T05:50:13.749Z,98.21
2019-01-28T05:52:42.861Z,98.00
2019-01-28T05:55:16.391Z,97.91
2019-01-28T05:57:44.895Z,97.99
2019-01-28T06:00:26.983Z,98.36
2019-01-28T06:02:55.430Z,98.11
2019-01-28T06:05:24.155Z,98.20
2019-01-28T06:07:52.613Z,98.22
2019-01-28T06:10:21.183Z,98.44
2019-01-28T06:12:49.577Z,98.67
2019-01-28T06:15:19.594Z,98.59
2019-01-28T06:17:48.028Z,98.91
2019-01-28T06:20:26.677Z,99.33
2019-01-28T06:22:55.117Z,99.58
2019-01-28T06:25:23.867Z,99.66
2019-01-28T06:27:52.301Z,99.76
2019-01-28T06:30:23.811Z,99.66
2019-01-28T06:32:52.252Z,99.78
2019-01-28T06:35:20.823Z,99.91
2019-01-28T06:37:49.521Z,100.00
2019-01-28T06:40:20.886Z,100.00
2019-01-28T06:42:49.337Z,100.00
2019-01-28T06:45:17.788Z,100.00
2019-01-28T06:47:47.137Z,100.00
2019-01-28T06:50:18.617Z,100.00
2019-01-28T06:52:47.354Z,100.00
2019-01-28T06:55:15.982Z,100.00
2019-01-28T06:57:44.636Z,100.00
2019-01-28T07:00:24.972Z,100.00
2019-01-28T07:02:53.698Z,100.00
2019-01-28T07:05:22.392Z,100.00
2019-01-28T07:07:50.927Z,100.00
2019-01-28T07:10:19.650Z,100.00
2019-01-28T07:12:48.302Z,100.00
2019-01-28T07:15:19.193Z,100.00
2019-01-28T07:17:54.581Z,100.00
2019-01-28T07:20:20.910Z,100.00
2019-01-28T07:22:49.376Z,100.00
2019-01-28T07:25:17.964Z,100.00
2019-01-28T07:27:46.436Z,100.00
2019-01-28T07:30:20.667Z,100.00
2019-01-28T07:32:54.832Z,100.00
2019-01-28T07:35:23.563Z,100.00
2019-01-28T07:37:52.034Z,100.00
2019-01-28T07:40:20.479Z,100.00
2019-01-28T07:42:48.955Z,100.00
2019-01-28T07:45:26.371Z,100.00
2019-01-28T07:48:02.397Z,100.00
2019-01-28T07:50:25.237Z,100.00
2019-01-28T07:52:53.973Z,100.00
2019-01-28T07:55:22.465Z,99.68
2019-01-28T07:57:51.104Z,99.07
2019-01-28T08:00:24.967Z,99.01
2019-01-28T08:02:53.428Z,98.98
2019-01-28T08:05:21.957Z,98.85
2019-01-28T08:07:50.392Z,98.65
2019-01-28T08:10:20.183Z,97.97
2019-01-28T08:12:49.561Z,97.51
2019-01-28T08:15:23.924Z,97.21
2019-01-28T08:17:52.375Z,97.20
2019-01-28T08:20:21.880Z,97.17
2019-01-28T08:22:50.339Z,97.21
2019-01-28T08:25:20.672Z,96.80
2019-01-28T08:27:49.642Z,96.14
2019-01-28T08:30:32.388Z,95.85
2019-01-28T08:33:02.862Z,95.45
2019-01-28T08:35:32.742Z,95.67
2019-01-28T08:38:01.331Z,95.80
2019-01-28T08:40:30.000Z,95.62
2019-01-28T08:42:58.454Z,95.90
2019-01-28T08:45:26.928Z,95.55
2019-01-28T08:47:55.401Z,95.11
2019-01-28T08:50:26.101Z,94.44
2019-01-28T08:52:54.541Z,93.53
2019-01-28T08:55:28.381Z,93.19
2019-01-28T08:57:56.928Z,93.41
2019-01-28T09:00:36.761Z,93.42
2019-01-28T09:03:05.854Z,93.21
2019-01-28T09:05:34.347Z,92.99
2019-01-28T09:08:02.814Z,92.48
2019-01-28T09:10:32.462Z,92.72
2019-01-28T09:13:00.983Z,92.65
2019-01-28T09:15:29.509Z,92.08
2019-01-28T09:17:58.217Z,91.84
2019-01-28T09:20:29.630Z,91.26
2019-01-28T09:22:58.087Z,90.86
2019-01-28T09:25:26.523Z,90.16
2019-01-28T09:27:54.996Z,90.02
2019-01-28T09:30:26.055Z,88.98
2019-01-28T09:32:54.517Z,88.62
2019-01-28T09:35:23.492Z,88.31
2019-01-28T09:37:52.287Z,88.51
2019-01-28T09:40:22.901Z,88.15
2019-01-28T09:42:51.443Z,88.12
2019-01-28T09:45:22.937Z,88.47
2019-01-28T09:47:51.407Z,88.55
2019-01-28T09:50:20.289Z,88.08
2019-01-28T09:52:50.399Z,87.85
2019-01-28T09:55:19.197Z,87.51
2019-01-28T09:57:47.665Z,86.73
2019-01-28T10:00:22.634Z,87.36
2019-01-28T10:02:51.135Z,87.44
2019-01-28T10:05:19.823Z,86.41
2019-01-28T10:07:48.349Z,86.56
2019-01-28T10:10:18.665Z,85.97
2019-01-28T10:12:47.216Z,86.21
2019-01-28T10:15:20.538Z,86.52
2019-01-28T10:17:48.973Z,85.68
2019-01-28T10:20:37.045Z,84.90
2019-01-28T10:23:05.735Z,85.13
2019-01-28T10:25:34.244Z,84.15
2019-01-28T10:28:02.687Z,84.65
2019-01-28T10:30:39.527Z,83.92
2019-01-28T10:33:08.502Z,84.36
2019-01-28T10:35:37.800Z,83.92
2019-01-28T10:38:06.987Z,83.35
2019-01-28T10:40:38.008Z,83.21
2019-01-28T10:43:07.399Z,83.58
2019-01-28T10:45:35.851Z,83.15
2019-01-28T10:48:05.266Z,81.76
2019-01-28T10:50:33.790Z,82.15
2019-01-28T10:53:02.237Z,80.65
2019-01-28T10:55:32.400Z,82.16
2019-01-28T10:58:00.934Z,82.00
2019-01-28T11:00:38.268Z,82.22
2019-01-28T11:03:08.291Z,82.31
2019-01-28T11:05:36.811Z,82.23
2019-01-28T11:08:06.296Z,81.77
2019-01-28T11:10:34.920Z,82.04
2019-01-28T11:13:05.149Z,81.39
2019-01-28T11:15:35.325Z,81.28
2019-01-28T11:18:13.041Z,82.04
2019-01-28T11:20:41.495Z,81.09
2019-01-28T11:23:10.103Z,81.38
2019-01-28T11:25:38.675Z,82.11
2019-01-28T11:28:07.152Z,81.52
2019-01-28T11:30:46.393Z,81.29
2019-01-28T11:33:15.002Z,80.63
2019-01-28T11:35:44.438Z,80.31
2019-01-28T11:38:14.190Z,80.73
2019-01-28T11:40:42.799Z,79.56
2019-01-28T11:43:11.518Z,80.07
2019-01-28T11:45:46.062Z,79.73
2019-01-28T11:48:14.863Z,79.18
2019-01-28T11:50:43.274Z,78.11
2019-01-28T11:53:11.748Z,78.13
2019-01-28T11:55:40.362Z,77.52
2019-01-28T11:58:08.998Z,76.95
2019-01-28T12:00:42.267Z,76.18
2019-01-28T12:03:10.801Z,76.23
2019-01-28T12:05:39.253Z,75.03
2019-01-28T12:08:07.871Z,75.00
2019-01-28T12:10:36.367Z,73.75
2019-01-28T12:13:05.627Z,73.82
2019-01-28T12:15:34.145Z,75.25
2019-01-28T12:18:02.615Z,75.43
2019-01-28T12:20:31.050Z,76.05
2019-01-28T12:22:59.539Z,76.02
2019-01-28T12:25:28.053Z,75.11
2019-01-28T12:27:56.897Z,74.06
2019-01-28T12:30:30.415Z,74.29
2019-01-28T12:32:58.874Z,74.03
2019-01-28T12:35:27.318Z,73.87
2019-01-28T12:37:55.787Z,73.26
2019-01-28T12:40:24.761Z,72.29
2019-01-28T12:42:53.220Z,71.46
2019-01-28T12:45:26.883Z,72.03
2019-01-28T12:47:55.457Z,72.09
2019-01-28T12:50:24.946Z,71.47
2019-01-28T12:52:53.625Z,70.49
2019-01-28T12:55:23.827Z,69.62
2019-01-28T12:57:52.306Z,69.24
2019-01-28T13:00:33.354Z,70.33
2019-01-28T13:03:01.864Z,70.84
2019-01-28T13:05:30.523Z,70.59
2019-01-28T13:07:59.031Z,70.80
2019-01-28T13:10:27.857Z,71.32
2019-01-28T13:12:56.299Z,71.00
2019-01-28T13:15:29.730Z,70.76
2019-01-28T13:17:58.233Z,71.06
2019-01-28T13:20:27.242Z,70.59
2019-01-28T13:22:55.685Z,70.26
2019-01-28T13:25:32.633Z,70.52
2019-01-28T13:28:01.156Z,70.52
2019-01-28T13:30:35.519Z,69.92
2019-01-28T13:33:06.758Z,71.15
2019-01-28T13:35:35.308Z,71.34
2019-01-28T13:38:03.764Z,70.99
2019-01-28T13:40:32.268Z,70.90
2019-01-28T13:43:00.742Z,70.86
2019-01-28T13:45:29.219Z,70.90
2019-01-28T13:47:57.982Z,70.36
2019-01-28T13:50:28.056Z,70.88
2019-01-28T13:52:56.584Z,70.59
2019-01-28T13:55:25.279Z,71.61
2019-01-28T13:57:53.722Z,71.27
2019-01-28T14:00:30.053Z,70.83
2019-01-28T14:02:59.052Z,70.80
2019-01-28T14:05:27.708Z,70.44
2019-01-28T14:07:56.783Z,71.43
2019-01-28T14:10:27.473Z,71.26
2019-01-28T14:12:56.093Z,70.30
2019-01-28T14:15:32.825Z,70.91
2019-01-28T14:18:01.343Z,71.17
2019-01-28T14:20:32.240Z,71.68
2019-01-28T14:23:00.874Z,72.55
2019-01-28T14:25:29.489Z,71.17
2019-01-28T14:27:57.926Z,71.89
2019-01-28T14:30:38.178Z,71.84
2019-01-28T14:33:07.559Z,72.57
2019-01-28T14:35:36.401Z,73.60
2019-01-28T14:38:06.647Z,72.79
2019-01-28T14:40:35.414Z,72.95
2019-01-28T14:43:04.068Z,73.91
2019-01-28T14:45:32.509Z,73.78
2019-01-28T14:48:00.952Z,73.61
2019-01-28T14:50:36.592Z,73.34
2019-01-28T14:53:05.279Z,72.86
2019-01-28T14:55:33.786Z,73.70
2019-01-28T14:58:02.509Z,73.65
2019-01-28T15:00:36.768Z,73.14
2019-01-28T15:03:05.605Z,73.49
2019-01-28T15:05:34.409Z,73.06
2019-01-28T15:08:02.853Z,73.46
2019-01-28T15:10:31.310Z,74.01
2019-01-28T15:12:59.755Z,72.80
2019-01-28T15:15:33.675Z,73.19
2019-01-28T15:18:02.202Z,73.17
2019-01-28T15:20:30.811Z,74.04
2019-01-28T15:22:59.671Z,74.76
2019-01-28T15:25:28.119Z,74.51
2019-01-28T15:27:56.582Z,74.71
2019-01-28T15:30:30.056Z,74.50
2019-01-28T15:32:58.680Z,74.20
2019-01-28T15:35:27.140Z,74.68
2019-01-28T15:37:55.603Z,73.94
2019-01-28T15:40:29.243Z,74.79
2019-01-28T15:42:57.711Z,75.43
2019-01-28T15:45:28.928Z,76.44
2019-01-28T15:47:57.440Z,77.62
2019-01-28T15:50:26.114Z,79.36
2019-01-28T15:52:54.638Z,81.08
2019-01-28T15:55:28.688Z,82.77
2019-01-28T15:57:57.413Z,82.64
2019-01-28T16:00:31.832Z,82.27
2019-01-28T16:03:00.739Z,83.10
2019-01-28T16:05:29.191Z,83.78
2019-01-28T16:07:57.659Z,84.73
2019-01-28T16:10:26.113Z,85.33
2019-01-28T16:12:54.683Z,85.55
2019-01-28T16:15:34.963Z,85.33
2019-01-28T16:18:08.651Z,85.26
2019-01-28T16:20:33.866Z,86.05
2019-01-28T16:23:02.362Z,86.87
2019-01-28T16:25:30.824Z,87.00
2019-01-28T16:27:59.260Z,87.04
2019-01-28T16:30:30.919Z,87.44
2019-01-28T16:32:59.457Z,87.99
2019-01-28T16:35:27.977Z,88.16
2019-01-28T16:37:56.444Z,87.84
2019-01-28T16:40:27.454Z,88.54
2019-01-28T16:42:57.357Z,88.90
2019-01-28T16:45:25.942Z,87.68
2019-01-28T16:47:54.467Z,88.69
2019-01-28T16:50:28.066Z,88.89
2019-01-28T16:52:56.810Z,89.68
2019-01-28T16:55:25.407Z,90.28
2019-01-28T16:57:54.666Z,89.97
2019-01-28T17:00:25.730Z,90.64
2019-01-28T17:02:54.254Z,91.33
2019-01-28T17:05:22.948Z,92.12
2019-01-28T17:07:51.564Z,91.78
2019-01-28T17:10:20.025Z,92.20
2019-01-28T17:12:48.482Z,91.60
2019-01-28T17:15:18.998Z,92.18
2019-01-28T17:17:48.280Z,92.87
2019-01-28T17:20:19.564Z,93.30
2019-01-28T17:22:48.177Z,93.60
2019-01-28T17:25:28.210Z,92.86
2019-01-28T17:27:56.728Z,92.94
2019-01-28T17:30:33.478Z,93.75
2019-01-28T17:33:01.984Z,93.75
2019-01-28T17:35:30.509Z,93.66
2019-01-28T17:38:00.045Z,93.78
2019-01-28T17:40:32.002Z,93.85
2019-01-28T17:43:00.460Z,93.75
2019-01-28T17:45:29.421Z,93.32
2019-01-28T17:47:58.190Z,93.92
2019-01-28T17:50:27.274Z,94.34
2019-01-28T17:52:55.774Z,93.76
2019-01-28T17:55:24.336Z,92.81
2019-01-28T17:57:52.868Z,93.37
2019-01-28T18:00:29.748Z,93.57
2019-01-28T18:02:58.510Z,93.60
2019-01-28T18:05:26.944Z,93.56
2019-01-28T18:07:55.399Z,93.50
2019-01-28T18:10:24.000Z,93.53
2019-01-28T18:12:52.473Z,93.70
2019-01-28T18:15:23.238Z,93.93
2019-01-28T18:17:51.692Z,93.91
2019-01-28T18:20:20.329Z,93.80
2019-01-28T18:22:48.887Z,93.91
2019-01-28T18:25:20.404Z,93.33
2019-01-28T18:27:48.895Z,93.69
2019-01-28T18:30:45.257Z,94.20
2019-01-28T18:33:13.735Z,93.50
2019-01-28T18:35:42.211Z,93.68
2019-01-28T18:38:10.703Z,93.71
2019-01-28T18:40:39.189Z,93.65
2019-01-28T18:43:08.136Z,93.26
2019-01-28T18:45:36.781Z,93.86
2019-01-28T18:48:06.868Z,93.86
2019-01-28T18:50:35.380Z,93.91
2019-01-28T18:53:04.109Z,94.35
2019-01-28T18:55:32.635Z,93.43
2019-01-28T18:58:01.111Z,93.08
2019-01-28T19:00:31.313Z,93.45
2019-01-28T19:02:59.939Z,93.32
2019-01-28T19:05:30.184Z,93.50
2019-01-28T19:08:09.279Z,93.37
2019-01-28T19:10:40.803Z,93.65
2019-01-28T19:13:10.936Z,92.96
2019-01-28T19:15:56.068Z,92.55
2019-01-28T19:18:40.933Z,93.00
2019-01-28T19:21:11.104Z,93.23
2019-01-28T19:23:39.666Z,93.42
2019-01-28T19:26:08.076Z,93.55
2019-01-28T19:28:38.065Z,93.87
2019-01-28T19:31:06.587Z,93.93
2019-01-28T19:33:35.908Z,93.35
2019-01-28T19:36:04.660Z,92.78
2019-01-28T19:38:33.157Z,93.40
2019-01-28T19:41:03.142Z,93.19
2019-01-28T19:43:31.723Z,93.13
2019-01-28T19:46:00.189Z,93.34
2019-01-28T19:48:28.751Z,92.69
2019-01-28T19:50:57.307Z,92.28
2019-01-28T19:53:25.799Z,93.00
2019-01-28T19:55:54.267Z,92.64
2019-01-28T19:58:22.777Z,92.57
2019-01-28T20:00:54.981Z,92.60
2019-01-28T20:03:23.307Z,93.17
2019-01-28T20:05:51.781Z,93.35
2019-01-28T20:08:30.955Z,93.14
2019-01-28T20:11:03.483Z,93.11
2019-01-28T20:13:31.984Z,92.34
2019-01-28T20:16:00.438Z,92.63
2019-01-28T20:18:28.925Z,92.66
2019-01-28T20:20:57.398Z,93.20
2019-01-28T20:23:27.143Z,93.28
2019-01-28T20:26:03.375Z,94.09
2019-01-28T20:28:31.867Z,93.68
2019-01-28T20:31:00.337Z,93.56
2019-01-28T20:33:28.849Z,93.71
2019-01-28T20:35:57.583Z,93.47
2019-01-28T20:38:26.057Z,93.10
2019-01-28T20:40:54.532Z,93.19
2019-01-28T20:43:24.169Z,92.79
2019-01-28T20:45:53.971Z,92.92
2019-01-28T20:48:22.448Z,92.92
2019-01-28T20:50:50.897Z,93.45
2019-01-28T20:53:19.880Z,93.74
2019-01-28T20:55:48.381Z,93.97
2019-01-28T20:58:16.885Z,94.18
2019-01-28T21:00:45.377Z,94.70
2019-01-28T21:03:13.843Z,95.49
2019-01-28T21:05:42.362Z,95.18
2019-01-28T21:08:10.983Z,95.16
2019-01-28T21:10:39.530Z,95.25
2019-01-28T21:13:09.582Z,95.42
2019-01-28T21:15:38.045Z,95.16
2019-01-28T21:18:07.202Z,94.63
2019-01-28T21:20:35.971Z,94.17
2019-01-28T21:23:06.029Z,94.42
2019-01-28T21:25:34.582Z,94.65
2019-01-28T21:28:03.407Z,94.39
2019-01-28T21:30:34.478Z,93.95
2019-01-28T21:33:02.935Z,93.41
2019-01-28T21:35:48.636Z,93.51
2019-01-28T21:38:21.192Z,93.25
2019-01-28T21:40:51.198Z,92.86
2019-01-28T21:43:20.484Z,93.07
2019-01-28T21:45:48.963Z,92.96
2019-01-28T21:48:18.630Z,93.10
2019-01-28T21:50:47.119Z,93.31
2019-01-28T21:53:15.594Z,93.09
2019-01-28T21:55:44.069Z,93.51
2019-01-28T21:58:12.643Z,93.35
2019-01-28T22:00:41.113Z,93.42
2019-01-28T22:03:09.919Z,93.04
2019-01-28T22:05:38.849Z,93.14
2019-01-28T22:08:07.594Z,93.37
2019-01-28T22:10:36.146Z,93.67
2019-01-28T22:13:05.090Z,93.57
2019-01-28T22:15:33.553Z,93.31
2019-01-28T22:18:02.043Z,93.71
2019-01-28T22:20:30.524Z,93.61
2019-01-28T22:22:58.997Z,93.38
2019-01-28T22:25:27.491Z,93.25
2019-01-28T22:27:57.338Z,93.25
2019-01-28T22:30:26.089Z,93.11
2019-01-28T22:32:54.566Z,93.72
2019-01-28T22:35:23.025Z,94.14
2019-01-28T22:37:51.508Z,94.23
2019-01-28T22:40:20.597Z,93.93
2019-01-28T22:42:49.099Z,93.45
2019-01-28T22:45:18.997Z,93.19
2019-01-28T22:47:47.537Z,94.20
2019-01-28T22:50:18.287Z,94.29
2019-01-28T22:52:46.927Z,93.71
2019-01-28T22:55:17.416Z,93.81
2019-01-28T22:57:45.918Z,93.35
2019-01-28T23:00:24.690Z,93.49
2019-01-28T23:02:53.175Z,93.81
2019-01-28T23:05:21.667Z,94.48
2019-01-28T23:07:50.117Z,94.47
2019-01-28T23:10:18.574Z,94.44
2019-01-28T23:12:47.016Z,94.21
2019-01-28T23:15:15.476Z,93.94
2019-01-28T23:17:43.920Z,93.90
2019-01-28T23:20:12.551Z,93.71
2019-01-28T23:22:41.005Z,93.82
2019-01-28T23:25:09.492Z,93.42
2019-01-28T23:27:37.967Z,93.40
2019-01-28T23:30:09.718Z,93.35
2019-01-28T23:32:38.156Z,93.24
2019-01-28T23:35:08.870Z,93.28
2019-01-28T23:37:37.325Z,93.37
2019-01-28T23:40:08.124Z,93.40
2019-01-28T23:42:36.579Z,93.17
2019-01-28T23:45:08.133Z,93.35
2019-01-28T23:47:36.606Z,93.58
2019-01-28T23:50:08.178Z,93.81
2019-01-28T23:52:36.902Z,93.54
2019-01-28T23:55:06.805Z,93.80
2019-01-28T23:57:35.250Z,94.32
